createdAt,value
2022-12-15T00:00:48.693Z,5.65
2022-12-15T00:03:34.052Z,4.90
2022-12-15T00:06:19.399Z,5.38
2022-12-15T00:09:04.280Z,5.90
2022-12-15T00:11:49.597Z,5.53
2022-12-15T00:14:34.343Z,5.32
2022-12-15T00:17:19.197Z,5.27
2022-12-15T00:20:04.333Z,5.53
2022-12-15T00:22:49.161Z,6.38
2022-12-15T00:25:34.640Z,5.43
2022-12-15T00:28:19.720Z,5.72
2022-12-15T00:31:05.236Z,5.97
2022-12-15T00:33:50.214Z,5.03
2022-12-15T00:36:34.940Z,6.07
2022-12-15T00:39:03.943Z,5.97
2022-12-15T00:41:30.699Z,6.43
2022-12-15T00:43:57.274Z,4.93
2022-12-15T00:46:42.213Z,5.13
2022-12-15T00:49:28.864Z,5.55
2022-12-15T00:52:14.068Z,5.28
2022-12-15T00:54:59.391Z,6.40
2022-12-15T00:57:44.590Z,6.50
2022-12-15T01:00:30.167Z,5.25
2022-12-15T01:03:15.504Z,5.15
2022-12-15T01:06:00.584Z,6.55
2022-12-15T01:08:46.895Z,4.85
2022-12-15T01:11:31.742Z,4.60
2022-12-15T01:14:17.014Z,5.50
2022-12-15T01:17:01.960Z,5.18
2022-12-15T01:19:46.948Z,5.63
2022-12-15T01:22:16.053Z,5.07
2022-12-15T01:24:42.591Z,5.40
2022-12-15T01:27:09.019Z,4.95
2022-12-15T01:29:35.579Z,6.28
2022-12-15T01:32:02.149Z,4.88
2022-12-15T01:34:28.594Z,4.97
2022-12-15T01:36:55.006Z,5.30
2022-12-15T01:39:21.426Z,5.13
2022-12-15T01:41:47.933Z,5.25
2022-12-15T01:44:23.748Z,5.03
2022-12-15T01:46:55.041Z,5.93
2022-12-15T01:49:26.444Z,5.10
2022-12-15T01:51:58.352Z,5.93
2022-12-15T01:54:30.552Z,4.53
2022-12-15T01:57:03.007Z,5.78
2022-12-15T01:59:43.785Z,4.97
2022-12-15T02:02:12.544Z,5.30
2022-12-15T02:04:39.358Z,5.57
2022-12-15T02:07:05.823Z,4.65
2022-12-15T02:09:32.575Z,5.78
2022-12-15T02:12:08.032Z,5.18
2022-12-15T02:14:53.006Z,4.87
2022-12-15T02:17:28.099Z,4.68
2022-12-15T02:20:20.477Z,6.10
2022-12-15T02:23:05.447Z,4.65
2022-12-15T02:25:44.307Z,5.85
2022-12-15T02:28:16.979Z,5.10
2022-12-15T02:31:09.796Z,4.20
2022-12-15T02:33:43.781Z,4.72
2022-12-15T02:36:17.264Z,4.63
2022-12-15T02:38:45.140Z,5.45
2022-12-15T02:41:35.498Z,4.60
2022-12-15T02:44:19.792Z,5.65
2022-12-15T02:46:54.718Z,5.07
2022-12-15T02:49:33.342Z,5.18
2022-12-15T02:52:36.273Z,5.55
2022-12-15T02:55:30.736Z,4.53
2022-12-15T02:58:18.920Z,5.55
2022-12-15T03:00:54.542Z,5.28
2022-12-15T03:03:22.715Z,5.15
2022-12-15T03:05:57.329Z,6.03
2022-12-15T03:08:24.006Z,5.20
2022-12-15T03:10:53.078Z,5.68
2022-12-15T03:13:19.475Z,5.47
2022-12-15T03:15:46.174Z,5.95
2022-12-15T03:18:12.971Z,5.38
2022-12-15T03:20:39.309Z,6.17
2022-12-15T03:23:05.657Z,5.15
2022-12-15T03:25:32.449Z,4.82
2022-12-15T03:27:59.024Z,5.18
2022-12-15T03:30:25.476Z,5.53
2022-12-15T03:32:51.918Z,5.37
2022-12-15T03:35:18.682Z,6.38
2022-12-15T03:37:45.113Z,5.57
2022-12-15T03:40:13.831Z,5.53
2022-12-15T03:42:49.450Z,5.82
2022-12-15T03:45:24.257Z,5.40
2022-12-15T03:47:51.455Z,5.68
2022-12-15T03:50:26.942Z,6.28
2022-12-15T03:52:56.148Z,6.18
2022-12-15T03:55:23.181Z,4.93
2022-12-15T03:57:49.883Z,5.37
2022-12-15T04:00:18.673Z,4.35
2022-12-15T04:02:46.727Z,5.80
2022-12-15T04:05:26.091Z,5.78
2022-12-15T04:07:53.858Z,5.07
2022-12-15T04:10:20.609Z,4.97
2022-12-15T04:12:47.196Z,5.15
2022-12-15T04:15:13.758Z,5.65
2022-12-15T04:17:41.637Z,5.70
2022-12-15T04:20:11.660Z,4.82
2022-12-15T04:22:43.712Z,6.60
2022-12-15T04:25:34.605Z,5.78
2022-12-15T04:28:19.622Z,4.55
2022-12-15T04:31:14.678Z,5.25
2022-12-15T04:34:03.538Z,4.82
2022-12-15T04:36:49.906Z,4.33
2022-12-15T04:39:35.274Z,4.63
2022-12-15T04:42:21.312Z,5.20
2022-12-15T04:45:08.487Z,4.47
2022-12-15T04:47:53.739Z,5.53
2022-12-15T04:50:38.805Z,4.60
2022-12-15T04:53:33.139Z,5.90
2022-12-15T04:56:19.060Z,4.75
2022-12-15T04:59:04.825Z,4.65
2022-12-15T05:01:50.154Z,5.03
2022-12-15T05:04:35.235Z,4.33
2022-12-15T05:07:20.347Z,5.30
2022-12-15T05:10:08.307Z,5.13
2022-12-15T05:12:57.685Z,5.13
2022-12-15T05:15:42.413Z,5.38
2022-12-15T05:18:27.361Z,4.80
2022-12-15T05:21:12.173Z,5.22
2022-12-15T05:23:56.847Z,5.78
2022-12-15T05:26:41.734Z,6.05
2022-12-15T05:29:26.657Z,6.72
2022-12-15T05:31:54.692Z,6.50
2022-12-15T05:34:23.021Z,5.05
2022-12-15T05:36:50.542Z,6.40
2022-12-15T05:39:17.082Z,6.72
2022-12-15T05:41:43.613Z,6.75
2022-12-15T05:44:10.319Z,5.47
2022-12-15T05:46:37.235Z,5.38
2022-12-15T05:49:07.922Z,5.60
2022-12-15T05:51:38.415Z,6.15
2022-12-15T05:54:05.139Z,6.50
2022-12-15T05:56:31.594Z,4.63
2022-12-15T05:58:57.998Z,5.43
2022-12-15T06:01:25.365Z,5.93
2022-12-15T06:03:52.334Z,5.03
2022-12-15T06:06:19.739Z,6.45
2022-12-15T06:08:46.266Z,6.10
2022-12-15T06:11:18.407Z,5.72
2022-12-15T06:13:44.896Z,5.57
2022-12-15T06:16:16.257Z,5.93
2022-12-15T06:18:50.219Z,5.78
2022-12-15T06:21:19.423Z,6.20
2022-12-15T06:23:46.740Z,6.10
2022-12-15T06:26:17.272Z,6.22
2022-12-15T06:28:43.967Z,5.25
2022-12-15T06:31:12.686Z,6.45
2022-12-15T06:33:39.272Z,5.43
2022-12-15T06:36:08.999Z,6.20
2022-12-15T06:38:36.313Z,5.30
2022-12-15T06:41:04.739Z,6.35
2022-12-15T06:43:33.260Z,6.10
2022-12-15T06:46:01.148Z,5.83
2022-12-15T06:48:27.839Z,5.80
2022-12-15T06:50:54.600Z,5.18
2022-12-15T06:53:24.050Z,6.03
2022-12-15T06:55:50.990Z,5.53
2022-12-15T06:58:18.254Z,5.67
2022-12-15T07:00:46.272Z,5.40
2022-12-15T07:03:16.201Z,5.10
2022-12-15T07:05:44.963Z,5.93
2022-12-15T07:08:12.839Z,6.05
2022-12-15T07:10:44.026Z,4.80
2022-12-15T07:13:11.932Z,5.10
2022-12-15T07:15:38.905Z,5.30
2022-12-15T07:18:05.984Z,5.43
2022-12-15T07:20:33.360Z,5.45
2022-12-15T07:23:00.623Z,4.97
2022-12-15T07:25:26.957Z,4.85
2022-12-15T07:27:53.355Z,4.75
2022-12-15T07:30:19.783Z,5.50
2022-12-15T07:32:46.604Z,5.32
2022-12-15T07:35:16.966Z,5.77
2022-12-15T07:37:43.511Z,5.72
2022-12-15T07:40:10.136Z,7.22
2022-12-15T07:42:36.519Z,6.03
2022-12-15T07:45:05.177Z,7.32
2022-12-15T07:47:32.493Z,5.33
2022-12-15T07:49:58.963Z,5.88
2022-12-15T07:52:26.137Z,5.75
2022-12-15T07:54:52.504Z,5.22
2022-12-15T07:57:18.926Z,6.15
2022-12-15T07:59:45.404Z,5.60
2022-12-15T08:02:13.169Z,5.03
2022-12-15T08:04:40.476Z,4.68
2022-12-15T08:07:07.991Z,6.45
2022-12-15T08:09:34.607Z,6.45
2022-12-15T08:12:01.044Z,5.87
2022-12-15T08:14:29.173Z,7.20
2022-12-15T08:16:55.693Z,7.75
2022-12-15T08:19:22.158Z,6.70
2022-12-15T08:21:48.740Z,7.22
2022-12-15T08:24:15.730Z,7.23
2022-12-15T08:26:43.856Z,7.10
2022-12-15T08:31:59.316Z,7.88
2022-12-15T08:34:25.808Z,7.38
2022-12-15T08:36:52.198Z,7.20
2022-12-15T08:39:18.642Z,7.07
2022-12-15T08:41:45.237Z,7.47
2022-12-15T08:44:11.867Z,7.35
2022-12-15T08:46:38.395Z,7.13
2022-12-15T08:49:04.780Z,6.90
2022-12-15T08:51:32.796Z,6.47
2022-12-15T08:54:00.543Z,7.45
2022-12-15T08:56:28.666Z,8.40
2022-12-15T08:58:57.726Z,7.75
2022-12-15T09:01:26.480Z,7.97
2022-12-15T09:03:54.834Z,7.47
2022-12-15T09:06:28.319Z,8.52
2022-12-15T09:08:56.625Z,7.80
2022-12-15T09:11:24.297Z,10.45
2022-12-15T09:13:51.115Z,9.23
2022-12-15T09:16:19.829Z,9.18
2022-12-15T09:18:48.914Z,10.10
2022-12-15T09:21:16.756Z,9.98
2022-12-15T09:23:43.366Z,10.32
2022-12-15T09:26:12.434Z,9.90
2022-12-15T09:28:39.198Z,11.05
2022-12-15T09:31:13.736Z,10.40
2022-12-15T09:33:42.744Z,9.93
2022-12-15T09:36:11.115Z,10.43
2022-12-15T09:38:38.226Z,11.60
2022-12-15T09:41:13.569Z,10.98
2022-12-15T09:43:48.264Z,10.95
2022-12-15T09:46:50.197Z,10.68
2022-12-15T09:49:48.213Z,10.23
2022-12-15T09:52:22.667Z,10.20
2022-12-15T09:54:49.349Z,10.15
2022-12-15T09:57:40.273Z,10.15
2022-12-15T10:00:11.232Z,10.60
2022-12-15T10:02:52.414Z,12.02
2022-12-15T10:06:07.198Z,11.73
2022-12-15T10:08:30.416Z,11.20
2022-12-15T10:11:23.199Z,10.25
2022-12-15T10:14:11.265Z,11.02
2022-12-15T10:17:13.129Z,11.00
2022-12-15T10:19:45.426Z,11.07
2022-12-15T10:22:22.875Z,10.80
2022-12-15T10:28:13.099Z,10.23
2022-12-15T10:31:00.597Z,11.07
2022-12-15T10:33:37.572Z,9.50
2022-12-15T10:36:12.369Z,11.70
2022-12-15T10:38:42.442Z,11.63
2022-12-15T10:41:11.992Z,11.13
2022-12-15T10:43:47.033Z,12.30
2022-12-15T10:46:22.333Z,10.77
2022-12-15T10:48:51.913Z,10.73
2022-12-15T10:51:20.068Z,10.15
2022-12-15T10:53:55.288Z,10.00
2022-12-15T10:56:33.618Z,10.88
2022-12-15T10:59:21.159Z,10.07
2022-12-15T11:01:47.658Z,9.98
2022-12-15T11:04:32.414Z,10.10
2022-12-15T11:07:01.296Z,10.07
2022-12-15T11:09:38.946Z,9.52
2022-12-15T11:12:42.713Z,10.03
2022-12-15T11:15:32.138Z,9.85
2022-12-15T11:18:10.674Z,10.23
2022-12-15T11:20:45.130Z,10.23
2022-12-15T11:23:48.797Z,11.15
2022-12-15T11:26:46.920Z,9.50
2022-12-15T11:29:38.945Z,10.40
2022-12-15T11:32:07.528Z,8.98
2022-12-15T11:34:41.838Z,8.82
2022-12-15T11:37:17.281Z,11.02
2022-12-15T11:40:19.816Z,10.23
2022-12-15T11:43:18.440Z,9.77
2022-12-15T11:46:09.908Z,10.30
2022-12-15T11:48:50.361Z,9.77
2022-12-15T11:51:35.270Z,9.45
2022-12-15T11:54:11.972Z,9.90
2022-12-15T11:56:47.093Z,9.88
2022-12-15T11:59:35.949Z,10.80
2022-12-15T12:02:24.906Z,10.52
2022-12-15T12:05:16.066Z,10.65
2022-12-15T12:07:49.462Z,9.73
2022-12-15T12:10:31.093Z,10.32
2022-12-15T12:13:12.159Z,10.23
2022-12-15T12:15:47.475Z,10.75
2022-12-15T12:18:23.215Z,10.15
2022-12-15T12:20:54.909Z,10.87
2022-12-15T12:23:36.527Z,11.18
2022-12-15T12:26:25.883Z,10.40
2022-12-15T12:29:06.569Z,10.43
2022-12-15T12:31:51.930Z,10.27
2022-12-15T12:34:37.420Z,10.00
2022-12-15T12:37:19.798Z,10.57
2022-12-15T12:39:48.121Z,10.48
2022-12-15T12:42:22.970Z,10.43
2022-12-15T12:44:49.386Z,11.35
2022-12-15T12:47:41.264Z,10.40
2022-12-15T12:50:17.257Z,12.30
2022-12-15T12:53:03.596Z,11.40
2022-12-15T12:55:41.687Z,10.98
2022-12-15T12:58:34.804Z,12.30
2022-12-15T13:01:10.390Z,11.13
2022-12-15T13:03:42.022Z,11.85
2022-12-15T13:06:40.613Z,11.40
2022-12-15T13:09:22.024Z,12.15
2022-12-15T13:11:48.917Z,11.98
2022-12-15T13:17:27.700Z,11.68
2022-12-15T13:20:00.464Z,11.60
2022-12-15T13:22:26.778Z,13.40
2022-12-15T13:24:56.192Z,12.90
2022-12-15T13:27:23.792Z,11.93
2022-12-15T13:30:14.139Z,12.85
2022-12-15T13:32:43.510Z,13.63
2022-12-15T13:35:12.654Z,13.25
2022-12-15T13:37:51.251Z,13.07
2022-12-15T13:40:33.639Z,12.53
2022-12-15T13:43:06.028Z,13.82
2022-12-15T13:45:48.595Z,13.73
2022-12-15T13:48:29.201Z,11.90
2022-12-15T13:50:58.011Z,13.82
2022-12-15T13:53:28.934Z,13.77
2022-12-15T13:56:14.783Z,13.20
2022-12-15T13:58:44.565Z,12.20
2022-12-15T14:04:16.197Z,12.85
2022-12-15T14:06:50.870Z,13.40
2022-12-15T14:09:22.443Z,13.30
2022-12-15T14:11:54.304Z,13.68
2022-12-15T14:14:28.269Z,13.43
2022-12-15T14:16:58.832Z,13.90
2022-12-15T14:19:25.968Z,13.80
2022-12-15T14:21:55.548Z,13.88
2022-12-15T14:24:40.173Z,14.23
2022-12-15T14:27:30.471Z,12.93
2022-12-15T14:30:23.317Z,14.02
2022-12-15T14:33:08.249Z,15.37
2022-12-15T14:35:44.633Z,14.25
2022-12-15T14:38:20.922Z,13.52
2022-12-15T14:40:51.104Z,14.23
2022-12-15T14:43:24.929Z,13.73
2022-12-15T14:45:56.288Z,14.40
2022-12-15T14:48:41.830Z,14.90
2022-12-15T14:51:19.720Z,13.27
2022-12-15T14:53:53.048Z,15.75
2022-12-15T14:56:25.739Z,15.23
2022-12-15T14:59:04.211Z,14.40
2022-12-15T15:03:05.769Z,13.20
2022-12-15T15:03:06.148Z,15.48
2022-12-15T15:03:13.041Z,11.63
2022-12-15T15:04:36.992Z,15.40
2022-12-15T15:07:06.688Z,14.82
2022-12-15T15:09:40.578Z,14.10
2022-12-15T15:12:14.120Z,15.33
2022-12-15T15:14:44.550Z,14.48
2022-12-15T15:17:14.465Z,14.52
2022-12-15T15:19:49.002Z,15.23
2022-12-15T15:22:30.736Z,14.52
2022-12-15T15:24:57.122Z,14.37
2022-12-15T15:27:38.153Z,14.35
2022-12-15T15:30:20.569Z,15.38
2022-12-15T15:33:07.922Z,16.27
2022-12-15T15:35:34.462Z,14.75
2022-12-15T15:38:11.274Z,15.57
2022-12-15T15:40:37.763Z,14.52
2022-12-15T15:43:14.049Z,15.13
2022-12-15T15:45:41.902Z,15.68
2022-12-15T15:48:17.327Z,16.55
2022-12-15T15:50:44.589Z,15.13
2022-12-15T15:53:17.597Z,15.65
2022-12-15T15:55:44.781Z,17.65
2022-12-15T15:58:12.891Z,16.67
2022-12-15T16:00:40.234Z,17.05
2022-12-15T16:03:07.180Z,18.03
2022-12-15T16:05:33.938Z,18.08
2022-12-15T16:08:01.491Z,16.75
2022-12-15T16:10:28.311Z,17.17
2022-12-15T16:12:56.939Z,16.65
2022-12-15T16:15:26.236Z,14.67
2022-12-15T16:17:53.564Z,16.95
2022-12-15T16:20:22.506Z,17.02
2022-12-15T16:22:55.350Z,17.65
2022-12-15T16:25:31.736Z,18.08
2022-12-15T16:28:03.356Z,17.43
2022-12-15T16:30:30.064Z,17.35
2022-12-15T16:32:56.481Z,18.77
2022-12-15T16:35:26.387Z,17.58
2022-12-15T16:37:52.996Z,16.95
2022-12-15T16:40:23.499Z,16.27
2022-12-15T16:42:54.351Z,17.17
2022-12-15T16:45:23.292Z,19.13
2022-12-15T16:47:49.815Z,18.50
2022-12-15T16:50:38.185Z,18.77
2022-12-15T16:53:05.544Z,19.07
2022-12-15T16:55:39.811Z,21.05
2022-12-15T16:58:06.955Z,21.90
2022-12-15T17:00:35.204Z,20.98
2022-12-15T17:03:02.467Z,21.70
2022-12-15T17:05:31.906Z,21.00
2022-12-15T17:08:00.758Z,19.60
2022-12-15T17:10:30.138Z,20.02
2022-12-15T17:13:03.081Z,19.38
2022-12-15T17:15:29.457Z,18.25
2022-12-15T17:17:56.296Z,19.20
2022-12-15T17:20:30.097Z,18.02
2022-12-15T17:23:07.627Z,16.90
2022-12-15T17:28:30.994Z,17.60
2022-12-15T17:30:57.633Z,17.17
2022-12-15T17:33:25.699Z,18.73
2022-12-15T17:35:55.035Z,18.92
2022-12-15T17:38:22.672Z,18.08
2022-12-15T17:40:51.094Z,19.48
2022-12-15T17:43:23.799Z,19.07
2022-12-15T17:45:50.854Z,18.70
2022-12-15T17:48:17.874Z,18.55
2022-12-15T17:50:49.891Z,19.50
2022-12-15T17:53:18.580Z,18.15
2022-12-15T17:55:45.427Z,18.97
2022-12-15T17:58:20.947Z,18.75
2022-12-15T18:00:51.654Z,21.10
2022-12-15T18:03:19.558Z,19.05
2022-12-15T18:05:48.049Z,18.90
2022-12-15T18:08:22.585Z,18.10
2022-12-15T18:10:51.694Z,17.80
2022-12-15T18:13:26.844Z,17.35
2022-12-15T18:15:55.518Z,18.63
2022-12-15T18:18:24.833Z,17.60
2022-12-15T18:20:56.742Z,18.10
2022-12-15T18:23:25.076Z,17.95
2022-12-15T18:25:52.429Z,19.85
2022-12-15T18:28:21.972Z,17.70
2022-12-15T18:30:50.144Z,19.95
2022-12-15T18:33:16.844Z,20.20
2022-12-15T18:35:45.815Z,18.90
2022-12-15T18:38:23.868Z,19.00
2022-12-15T18:40:57.095Z,18.92
2022-12-15T18:43:34.698Z,20.13
2022-12-15T18:46:01.537Z,19.17
2022-12-15T18:48:35.034Z,17.38
2022-12-15T18:51:03.212Z,18.33
2022-12-15T18:53:34.042Z,18.75
2022-12-15T18:56:03.266Z,18.95
2022-12-15T18:58:32.388Z,18.40
2022-12-15T19:01:00.971Z,17.25
2022-12-15T19:03:28.346Z,21.02
2022-12-15T19:06:25.280Z,18.05
2022-12-15T19:08:52.478Z,18.13
2022-12-15T19:11:32.664Z,18.53
2022-12-15T19:14:01.026Z,18.38
2022-12-15T19:16:48.116Z,19.95
2022-12-15T19:19:34.876Z,19.38
2022-12-15T19:22:20.260Z,18.55
2022-12-15T19:24:55.558Z,18.63
2022-12-15T19:27:26.583Z,18.60
2022-12-15T19:29:54.533Z,18.55
2022-12-15T19:32:21.325Z,20.05
2022-12-15T19:34:47.752Z,18.55
2022-12-15T19:37:22.874Z,18.60
2022-12-15T19:39:49.610Z,17.92
2022-12-15T19:42:23.706Z,19.73
2022-12-15T19:44:50.107Z,18.10
2022-12-15T19:47:16.514Z,17.75
2022-12-15T19:49:43.585Z,19.33
2022-12-15T19:52:14.615Z,18.70
2022-12-15T19:54:42.389Z,17.42
2022-12-15T19:57:13.521Z,19.15
2022-12-15T19:59:39.994Z,19.65
2022-12-15T20:02:07.094Z,19.13
2022-12-15T20:04:34.055Z,18.15
2022-12-15T20:07:03.831Z,18.80
2022-12-15T20:09:30.287Z,17.10
2022-12-15T20:11:57.217Z,17.13
2022-12-15T20:14:24.846Z,17.50
2022-12-15T20:16:51.380Z,19.48
2022-12-15T20:19:17.883Z,19.73
2022-12-15T20:21:44.483Z,18.48
2022-12-15T20:24:17.464Z,18.45
2022-12-15T20:26:45.242Z,18.03
2022-12-15T20:29:24.661Z,19.15
2022-12-15T20:31:52.404Z,18.10
2022-12-15T20:34:18.945Z,17.13
2022-12-15T20:36:47.324Z,19.60
2022-12-15T20:39:33.968Z,19.63
2022-12-15T20:42:00.414Z,18.60
2022-12-15T20:44:26.976Z,18.05
2022-12-15T20:46:53.538Z,18.67
2022-12-15T20:49:21.625Z,16.50
2022-12-15T20:51:48.653Z,17.17
2022-12-15T20:54:17.482Z,19.42
2022-12-15T20:56:45.094Z,20.08
2022-12-15T20:59:11.514Z,19.77
2022-12-15T21:01:41.933Z,20.10
2022-12-15T21:04:29.279Z,20.23
2022-12-15T21:06:56.744Z,18.50
2022-12-15T21:09:24.036Z,18.70
2022-12-15T21:11:51.870Z,19.20
2022-12-15T21:14:22.293Z,17.77
2022-12-15T21:16:49.209Z,18.00
2022-12-15T21:19:20.963Z,19.65
2022-12-15T21:21:51.771Z,18.90
2022-12-15T21:24:24.550Z,17.67
2022-12-15T21:26:51.989Z,17.70
2022-12-15T21:29:21.416Z,18.50
2022-12-15T21:31:48.387Z,18.17
2022-12-15T21:34:15.257Z,17.30
2022-12-15T21:36:44.212Z,19.50
2022-12-15T21:39:18.515Z,19.00
2022-12-15T21:41:44.994Z,17.27
2022-12-15T21:44:13.750Z,17.83
2022-12-15T21:46:40.831Z,17.75
2022-12-15T21:49:20.401Z,17.95
2022-12-15T21:51:56.387Z,18.55
2022-12-15T21:54:31.327Z,16.10
2022-12-15T21:56:58.978Z,16.90
2022-12-15T21:59:28.935Z,19.10
2022-12-15T22:01:55.974Z,17.70
2022-12-15T22:04:31.349Z,18.05
2022-12-15T22:06:57.748Z,17.57
2022-12-15T22:09:24.622Z,17.23
2022-12-15T22:11:53.745Z,16.10
2022-12-15T22:14:33.589Z,17.08
2022-12-15T22:17:01.882Z,15.80
2022-12-15T22:19:28.683Z,16.23
2022-12-15T22:21:55.259Z,17.67
2022-12-15T22:24:22.036Z,17.58
2022-12-15T22:26:48.667Z,17.63
2022-12-15T22:29:18.783Z,18.15
2022-12-15T22:31:45.200Z,17.37
2022-12-15T22:34:20.730Z,16.98
2022-12-15T22:36:48.134Z,17.00
2022-12-15T22:39:15.095Z,18.52
2022-12-15T22:41:44.765Z,18.10
2022-12-15T22:44:19.307Z,17.33
2022-12-15T22:46:46.904Z,18.73
2022-12-15T22:49:17.483Z,17.52
2022-12-15T22:51:44.764Z,17.00
2022-12-15T22:54:17.928Z,16.88
2022-12-15T22:56:45.324Z,16.70
2022-12-15T22:59:19.500Z,19.08
2022-12-15T23:01:45.969Z,18.20
2022-12-15T23:04:12.800Z,18.25
2022-12-15T23:06:40.418Z,18.27
2022-12-15T23:09:06.969Z,17.73
2022-12-15T23:11:39.704Z,17.00
2022-12-15T23:14:14.458Z,18.38
2022-12-15T23:16:42.087Z,17.92
2022-12-15T23:19:09.526Z,17.42
2022-12-15T23:21:36.560Z,17.70
2022-12-15T23:24:03.086Z,17.05
2022-12-15T23:26:29.465Z,17.20
2022-12-15T23:28:56.020Z,17.38
2022-12-15T23:31:22.690Z,16.77
2022-12-15T23:33:50.025Z,16.17
2022-12-15T23:36:18.694Z,17.63
2022-12-15T23:38:45.178Z,17.55
2022-12-15T23:41:16.030Z,18.10
2022-12-15T23:43:42.475Z,16.30
2022-12-15T23:46:09.572Z,17.90
2022-12-15T23:48:38.357Z,17.70
2022-12-15T23:51:05.920Z,18.13
2022-12-15T23:53:33.200Z,16.38
2022-12-15T23:56:14.685Z,17.45
2022-12-15T23:58:42.597Z,15.57
